createdAt,value
2024-01-09T00:01:29.884Z,94239.97
2024-01-09T00:06:32.862Z,94249.47
2024-01-09T00:11:35.754Z,94239.91
2024-01-09T00:16:38.723Z,94247.25
2024-01-09T00:21:42.200Z,94227.47
2024-01-09T00:26:47.334Z,94224.03
2024-01-09T00:31:51.028Z,94211.88
2024-01-09T00:36:54.137Z,94207.03
2024-01-09T00:41:56.967Z,94217.31
2024-01-09T00:47:01.763Z,94203.31
2024-01-09T00:52:05.752Z,94206.44
2024-01-09T00:57:09.116Z,94204.09
2024-01-09T01:02:12.297Z,94204.31
2024-01-09T01:07:15.844Z,94207.22
2024-01-09T01:12:18.645Z,94219.19
2024-01-09T01:17:21.601Z,94220.44
2024-01-09T01:22:24.554Z,94217.59
2024-01-09T01:27:27.951Z,94210.72
2024-01-09T01:32:30.994Z,94217.38
2024-01-09T01:37:34.742Z,94217.13
2024-01-09T01:42:37.755Z,94222.75
2024-01-09T01:47:40.846Z,94223.53
2024-01-09T01:52:45.849Z,94226.47
2024-01-09T01:57:51.842Z,94220.97
2024-01-09T02:02:55.831Z,94215.91
2024-01-09T02:08:00.299Z,94218.53
2024-01-09T02:13:07.593Z,94225.94
2024-01-09T02:18:11.523Z,94215.91
2024-01-09T02:23:15.299Z,94226.16
2024-01-09T02:28:26.824Z,94212.94
2024-01-09T02:33:31.352Z,94221.19
2024-01-09T02:38:37.548Z,94223.81
2024-01-09T02:43:41.636Z,94220.13
2024-01-09T02:48:45.418Z,94226.31
2024-01-09T02:53:51.526Z,94219.75
2024-01-09T02:58:54.742Z,94227.25
2024-01-09T03:03:57.619Z,94229.63
2024-01-09T03:08:59.983Z,94224.59
2024-01-09T03:14:03.528Z,94226.47
2024-01-09T03:19:07.101Z,94215.91
2024-01-09T03:24:10.854Z,94220.59
2024-01-09T03:29:14.697Z,94217.38
2024-01-09T03:34:18.083Z,94217.69
2024-01-09T03:39:21.063Z,94206.53
2024-01-09T03:44:23.739Z,94206.81
2024-01-09T03:49:26.416Z,94205.25
2024-01-09T03:54:29.460Z,94210.53
2024-01-09T03:59:32.407Z,94208.97
2024-01-09T04:04:39.387Z,94210.53
2024-01-09T04:09:43.061Z,94210.03
2024-01-09T04:14:48.449Z,94221.13
2024-01-09T04:19:53.394Z,94216.31
2024-01-09T04:24:56.652Z,94219.06
2024-01-09T04:29:59.994Z,94213.97
2024-01-09T04:35:03.024Z,94209.25
2024-01-09T04:40:07.462Z,94207.38
2024-01-09T04:45:12.456Z,94198.88
2024-01-09T04:50:18.344Z,94207.59
2024-01-09T04:55:22.828Z,94205.53
2024-01-09T05:00:27.293Z,94203.47
2024-01-09T05:05:30.487Z,94201.88
2024-01-09T05:10:36.538Z,94202.19
2024-01-09T05:15:41.410Z,94199.56
2024-01-09T05:20:46.879Z,94197.75
2024-01-09T05:25:52.305Z,94194.63
2024-01-09T05:30:56.922Z,94204.09
2024-01-09T05:36:00.715Z,94209.13
2024-01-09T05:41:04.332Z,94219.91
2024-01-09T05:46:07.516Z,94211.47
2024-01-09T05:51:12.925Z,94203.25
2024-01-09T05:56:16.943Z,94199.25
2024-01-09T06:01:21.530Z,94198.19
2024-01-09T06:06:25.022Z,94211.13
2024-01-09T06:11:29.317Z,94210.81
2024-01-09T06:16:32.145Z,94216.84
2024-01-09T06:21:35.652Z,94213.41
2024-01-09T06:26:40.208Z,94216.31
2024-01-09T06:31:43.565Z,94216.31
2024-01-09T06:36:47.595Z,94216.91
2024-01-09T06:41:51.993Z,94216.19
2024-01-09T06:46:55.605Z,94225.97
2024-01-09T06:51:59.417Z,94225.03
2024-01-09T06:57:04.582Z,94219.81
2024-01-09T07:02:07.967Z,94228.81
2024-01-09T07:07:12.916Z,94237.47
2024-01-09T07:12:17.989Z,94232.94
2024-01-09T07:17:20.802Z,94240.16
2024-01-09T07:22:24.470Z,94244.44
2024-01-09T07:27:28.433Z,94256.28
2024-01-09T07:32:31.343Z,94258.09
2024-01-09T07:37:34.534Z,94262.59
2024-01-09T07:42:43.496Z,94268.38
2024-01-09T07:47:52.540Z,94280.94
2024-01-09T07:52:55.536Z,94278.03
2024-01-09T07:58:00.917Z,94290.63
2024-01-09T08:03:05.597Z,94300.97
2024-01-09T08:08:09.198Z,94306.75
2024-01-09T08:13:12.689Z,94311.81
2024-01-09T08:18:16.948Z,94313.63
2024-01-09T08:23:20.152Z,94303.50
2024-01-09T08:28:24.887Z,94315.56
2024-01-09T08:33:32.601Z,94320.06
2024-01-09T08:38:36.064Z,94323.22
2024-01-09T08:43:38.722Z,94326.31
2024-01-09T08:48:42.818Z,94330.50
2024-01-09T08:53:46.815Z,94327.22
2024-01-09T08:58:51.755Z,94319.66
2024-01-09T09:03:54.782Z,94331.97
2024-01-09T09:08:58.041Z,94334.03
2024-01-09T09:14:14.703Z,94334.88
2024-01-09T09:19:20.200Z,94348.06
2024-01-09T09:24:23.256Z,94348.66
2024-01-09T09:29:36.242Z,94351.59
2024-01-09T09:34:44.797Z,94359.06
2024-01-09T09:39:49.281Z,94359.38
2024-01-09T09:44:53.606Z,94352.38
2024-01-09T09:49:57.615Z,94362.94
2024-01-09T09:55:01.881Z,94350.81
2024-01-09T10:00:12.161Z,94360.38
2024-01-09T10:05:18.032Z,94343.22
2024-01-09T10:10:22.214Z,94337.16
2024-01-09T10:15:25.270Z,94330.31
2024-01-09T10:20:31.655Z,94324.63
2024-01-09T10:25:34.524Z,94319.81
2024-01-09T10:30:43.986Z,94321.59
2024-01-09T10:35:48.019Z,94322.94
2024-01-09T10:40:57.074Z,94316.66
2024-01-09T10:46:04.165Z,94332.31
2024-01-09T10:51:07.840Z,94324.72
2024-01-09T10:56:11.005Z,94326.19
2024-01-09T11:01:15.061Z,94327.81
2024-01-09T11:06:18.687Z,94317.00
2024-01-09T11:11:23.836Z,94306.56
2024-01-09T11:16:27.646Z,94312.91
2024-01-09T11:21:32.137Z,94308.19
2024-01-09T11:26:36.642Z,94306.19
2024-01-09T11:31:42.052Z,94302.16
2024-01-09T11:36:45.238Z,94301.13
2024-01-09T11:41:51.643Z,94293.28
2024-01-09T11:46:55.076Z,94305.09
2024-01-09T11:51:58.764Z,94300.84
2024-01-09T11:57:02.182Z,94285.06
2024-01-09T12:02:08.675Z,94290.47
2024-01-09T12:07:13.955Z,94280.84
2024-01-09T12:12:25.004Z,94281.31
2024-01-09T12:17:37.940Z,94282.22
2024-01-09T12:22:41.189Z,94282.44
2024-01-09T12:27:43.886Z,94277.81
2024-01-09T12:32:47.384Z,94287.75
2024-01-09T12:37:51.802Z,94282.31
2024-01-09T12:43:14.188Z,94275.56
2024-01-09T12:48:17.366Z,94268.66
2024-01-09T12:53:21.695Z,94258.94
2024-01-09T12:58:25.827Z,94257.91
2024-01-09T13:03:29.808Z,94251.03
2024-01-09T13:08:35.951Z,94236.00
2024-01-09T13:13:44.397Z,94232.19
2024-01-09T13:18:48.975Z,94234.13
2024-01-09T13:23:54.081Z,94233.59
2024-01-09T13:34:05.665Z,94213.97
2024-01-09T13:39:11.411Z,94203.53
2024-01-09T13:44:16.580Z,94201.50
2024-01-09T13:49:19.513Z,94190.88
2024-01-09T13:54:27.077Z,94188.66
2024-01-09T13:59:30.584Z,94181.31
2024-01-09T14:04:33.930Z,94195.53
2024-01-09T14:09:41.360Z,94187.59
2024-01-09T14:14:44.617Z,94182.91
2024-01-09T14:19:47.961Z,94181.13
2024-01-09T14:24:51.409Z,94169.28
2024-01-09T14:29:56.092Z,94169.56
2024-01-09T14:34:59.854Z,94171.16
2024-01-09T14:40:14.349Z,94161.16
2024-01-09T14:45:18.964Z,94163.97
2024-01-09T14:50:22.939Z,94172.50
2024-01-09T14:55:28.810Z,94180.03
2024-01-09T15:00:32.446Z,94175.38
2024-01-09T15:05:35.582Z,94191.50
2024-01-09T15:10:38.607Z,94182.75
2024-01-09T15:15:41.615Z,94184.25
2024-01-09T15:20:44.526Z,94180.16
2024-01-09T15:25:48.205Z,94173.34
2024-01-09T15:30:52.525Z,94164.28
2024-01-09T15:35:58.906Z,94170.50
2024-01-09T15:41:11.018Z,94160.19
2024-01-09T15:46:14.128Z,94151.44
2024-01-09T15:51:20.622Z,94147.41
2024-01-09T15:56:25.887Z,94158.38
2024-01-09T16:01:28.840Z,94155.84
2024-01-09T16:06:34.600Z,94153.81
2024-01-09T16:11:38.983Z,94157.53
2024-01-09T16:16:43.389Z,94154.53
2024-01-09T16:21:46.904Z,94154.78
2024-01-09T16:26:49.810Z,94158.81
2024-01-09T16:31:54.012Z,94157.06
2024-01-09T16:36:57.052Z,94160.00
2024-01-09T16:42:01.412Z,94157.78
2024-01-09T16:47:04.917Z,94171.47
2024-01-09T16:52:09.114Z,94163.16
2024-01-09T16:57:19.829Z,94173.88
2024-01-09T17:02:24.198Z,94163.19
2024-01-09T17:07:28.641Z,94165.19
2024-01-09T17:12:35.546Z,94165.78
2024-01-09T17:17:45.707Z,94169.94
2024-01-09T17:22:49.403Z,94177.78
2024-01-09T17:27:54.156Z,94178.88
2024-01-09T17:32:58.413Z,94179.78
2024-01-09T17:38:00.939Z,94174.75
2024-01-09T17:43:05.223Z,94170.53
2024-01-09T17:48:08.726Z,94179.41
2024-01-09T17:53:12.218Z,94177.91
2024-01-09T17:58:15.139Z,94187.56
2024-01-09T18:03:18.820Z,94184.53
2024-01-09T18:08:21.895Z,94192.56
2024-01-09T18:13:25.295Z,94206.47
2024-01-09T18:18:30.523Z,94205.81
2024-01-09T18:23:33.322Z,94220.13
2024-01-09T18:28:40.556Z,94221.50
2024-01-09T18:33:46.712Z,94223.63
2024-01-09T18:38:50.058Z,94213.94
2024-01-09T18:43:54.846Z,94221.97
2024-01-09T18:48:59.870Z,94227.56
2024-01-09T18:54:04.302Z,94217.34
2024-01-09T18:59:07.913Z,94219.59
2024-01-09T19:04:12.346Z,94225.88
2024-01-09T19:09:16.811Z,94224.69
2024-01-09T19:14:20.957Z,94235.97
2024-01-09T19:19:25.943Z,94233.94
2024-01-09T19:24:29.612Z,94218.91
2024-01-09T19:29:33.297Z,94228.44
2024-01-09T19:34:41.471Z,94214.69
2024-01-09T19:40:05.115Z,94200.69
2024-01-09T19:45:24.936Z,94183.22
2024-01-09T19:50:28.787Z,94190.09
2024-01-09T19:55:35.557Z,94190.59
2024-01-09T20:00:43.039Z,94188.53
2024-01-09T20:05:49.522Z,94189.50
2024-01-09T20:10:55.091Z,94200.56
2024-01-09T20:15:59.299Z,94211.53
2024-01-09T20:21:04.969Z,94228.28
2024-01-09T20:26:09.074Z,94217.66
2024-01-09T20:31:12.086Z,94230.59
2024-01-09T20:36:14.978Z,94229.28
2024-01-09T20:41:19.067Z,94231.22
2024-01-09T20:46:22.363Z,94234.50
2024-01-09T20:51:26.993Z,94230.97
2024-01-09T20:56:29.564Z,94236.63
2024-01-09T21:01:36.469Z,94250.31
2024-01-09T21:06:40.573Z,94241.38
2024-01-09T21:11:46.494Z,94244.41
2024-01-09T21:16:49.329Z,94238.81
2024-01-09T21:21:52.037Z,94257.47
2024-01-09T21:26:55.263Z,94258.38
2024-01-09T21:31:57.772Z,94256.25
2024-01-09T21:37:00.300Z,94250.19
2024-01-09T21:42:03.103Z,94253.72
2024-01-09T21:47:07.334Z,94251.28
2024-01-09T21:52:13.341Z,94274.53
2024-01-09T21:57:16.581Z,94260.22
2024-01-09T22:02:27.653Z,94274.72
2024-01-09T22:07:30.646Z,94266.03
2024-01-09T22:12:34.733Z,94269.22
2024-01-09T22:17:38.766Z,94254.16
2024-01-09T22:22:43.109Z,94247.00
2024-01-09T22:27:46.114Z,94264.34
2024-01-09T22:32:49.828Z,94270.75
2024-01-09T22:37:53.057Z,94273.00
2024-01-09T22:42:57.713Z,94272.22
2024-01-09T22:48:04.047Z,94267.22
2024-01-09T22:53:11.412Z,94274.38
2024-01-09T22:58:15.804Z,94284.19
2024-01-09T23:03:20.356Z,94292.31
2024-01-09T23:08:24.456Z,94279.56
2024-01-09T23:13:28.391Z,94264.56
2024-01-09T23:18:32.385Z,94240.34
2024-01-09T23:23:36.020Z,94258.78
2024-01-09T23:28:40.141Z,94238.19
2024-01-09T23:33:43.689Z,94243.69
2024-01-09T23:38:47.332Z,94226.81
2024-01-09T23:43:50.953Z,94230.84
2024-01-09T23:48:54.085Z,94225.56
2024-01-09T23:53:56.991Z,94225.56
2024-01-09T23:59:00.958Z,94227.41
